Time;durP1;ratioP1;P1;durP2;ratioP2;P2;SDS_P1;SDS_P2;PMS_P1;PMS_P2;Temp;Humidity;BMP_temperature;BMP_pressure;BME280_temperature;BME280_humidity;BME280_pressure;Samples;Min_cycle;Max_cycle;Signal;HPM_P1;HPM_P2
2023/07/14 00:02:22;;;;;;;3.13;1.80;;;;;13.80;94517.00;;;;7401076;19;20200;-78
2023/07/14 00:04:57;;;;;;;4.80;1.45;;;;;13.70;94521.00;;;;7400407;19;20173;-78
2023/07/14 00:07:24;;;;;;;2.75;1.42;;;;;13.70;94515.00;;;;7402887;19;20144;-78
2023/07/14 00:09:58;;;;;;;4.88;1.73;;;;;13.50;94521.00;;;;7399125;19;20600;-78
2023/07/14 00:12:33;;;;;;;5.32;1.77;;;;;13.40;94513.00;;;;7400531;19;20151;-78
2023/07/14 00:15:08;;;;;;;4.03;1.50;;;;;13.30;94509.00;;;;7401603;19;20152;-78
2023/07/14 00:17:43;;;;;;;2.80;1.60;;;;;13.20;94513.00;;;;7400721;19;20621;-78
2023/07/14 00:20:26;;;;;;;3.83;1.65;;;;;13.10;94511.00;;;;7400152;19;20162;-78
2023/07/14 00:23:00;;;;;;;5.90;1.70;;;;;12.80;94508.00;;;;7398518;19;20173;-77
2023/07/14 00:25:36;;;;;;;3.33;1.80;;;;;12.90;94519.00;;;;7402555;19;20140;-79
2023/07/14 00:28:16;;;;;;;3.10;1.40;;;;;12.90;94507.00;;;;7400799;19;20149;-75
2023/07/14 00:30:50;;;;;;;3.10;1.73;;;;;13.00;94501.00;;;;7398457;19;20149;-75
2023/07/14 00:33:19;;;;;;;4.05;1.80;;;;;13.10;94501.00;;;;7400334;19;20146;-76
2023/07/14 00:35:53;;;;;;;3.25;1.45;;;;;13.20;94498.00;;;;7399221;19;20154;-76
2023/07/14 00:38:21;;;;;;;8.55;1.80;;;;;13.10;94497.00;;;;7398869;19;20631;-75
2023/07/14 00:40:49;;;;;;;2.63;1.63;;;;;13.10;94497.00;;;;7398847;19;20152;-76
2023/07/14 00:43:25;;;;;;;3.08;1.70;;;;;12.90;94498.00;;;;7401888;19;20140;-75
2023/07/14 00:45:59;;;;;;;4.78;1.63;;;;;12.90;94502.00;;;;7400311;19;20564;-75
2023/07/14 00:48:34;;;;;;;6.22;1.83;;;;;12.90;94487.00;;;;7399338;19;20513;-74
2023/07/14 00:51:14;;;;;;;3.75;1.50;;;;;12.70;94498.00;;;;7397699;19;20160;-75
2023/07/14 00:53:48;;;;;;;3.60;1.80;;;;;12.70;94498.00;;;;7401697;19;20137;-75
2023/07/14 00:56:31;;;;;;;2.35;1.52;;;;;12.90;94497.00;;;;7400029;19;20154;-75
2023/07/14 00:59:13;;;;;;;3.67;1.80;;;;;12.90;94504.00;;;;7401349;19;20597;-75
2023/07/14 01:02:11;;;;;;;6.05;1.90;;;;;13.10;94498.00;;;;7400023;19;20158;-77
2023/07/14 01:04:56;;;;;;;7.47;1.80;;;;;13.00;94494.00;;;;7399266;19;20145;-76
2023/07/14 01:07:41;;;;;;;4.95;2.00;;;;;13.00;94489.00;;;;7398105;19;20156;-75
2023/07/14 01:10:20;;;;;;;4.93;1.70;;;;;13.10;94497.00;;;;7398754;19;20145;-74
2023/07/14 01:13:04;;;;;;;5.90;1.70;;;;;13.00;94488.00;;;;7398579;19;20145;-75
2023/07/14 01:15:42;;;;;;;3.08;1.77;;;;;13.10;94488.00;;;;7396823;19;20219;-75
2023/07/14 01:18:16;;;;;;;7.22;1.77;;;;;13.10;94478.00;;;;7400190;19;20128;-75
2023/07/14 01:20:51;;;;;;;3.88;1.77;;;;;13.10;94475.00;;;;7400869;19;20141;-77
2023/07/14 01:23:53;;;;;;;3.97;1.75;;;;;13.00;94474.00;;;;7398483;19;20895;-76
2023/07/14 01:26:52;;;;;;;2.88;1.58;;;;;13.10;94474.00;;;;7398488;19;20148;-77
2023/07/14 01:29:20;;;;;;;4.70;1.90;;;;;13.30;94468.00;;;;7399222;19;20140;-76
2023/07/14 01:31:55;;;;;;;5.47;1.77;;;;;13.40;94469.00;;;;7400719;19;20168;-76
2023/07/14 01:34:29;;;;;;;3.20;1.85;;;;;13.60;94465.00;;;;7399607;19;20153;-74
2023/07/14 01:37:03;;;;;;;3.00;1.83;;;;;13.60;94462.00;;;;7397653;19;20225;-75
2023/07/14 01:39:35;;;;;;;9.43;1.83;;;;;13.50;94469.00;;;;7399827;19;20137;-75
2023/07/14 01:42:16;;;;;;;2.28;1.48;;;;;13.30;94468.00;;;;7396470;19;20545;-76
2023/07/14 01:44:45;;;;;;;6.82;1.80;;;;;13.40;94457.00;;;;7398394;19;20137;-75
2023/07/14 01:47:19;;;;;;;4.22;1.60;;;;;13.40;94459.00;;;;7397537;19;20152;-76
2023/07/14 01:49:51;;;;;;;3.75;1.63;;;;;13.50;94455.00;;;;7398086;19;20228;-76
2023/07/14 01:52:30;;;;;;;3.45;1.65;;;;;13.30;94454.00;;;;7399711;19;20644;-75
2023/07/14 01:55:04;;;;;;;3.38;1.95;;;;;13.40;94453.00;;;;7399744;19;20548;-77
2023/07/14 01:57:38;;;;;;;3.92;1.67;;;;;13.60;94447.00;;;;7399039;19;20140;-76
2023/07/14 02:00:09;;;;;;;4.07;1.45;;;;;13.60;94454.00;;;;7399073;19;20174;-75
2023/07/14 02:02:50;;;;;;;6.05;1.80;;;;;13.70;94445.00;;;;7399024;19;20165;-75
2023/07/14 02:05:21;;;;;;;4.05;1.83;;;;;13.40;94450.00;;;;7397292;19;20161;-75
2023/07/14 02:08:00;;;;;;;1.98;1.33;;;;;13.20;94444.00;;;;7397170;19;20137;-77
2023/07/14 02:10:29;;;;;;;3.90;2.15;;;;;13.30;94442.00;;;;7398239;19;20137;-76
2023/07/14 02:13:05;;;;;;;4.95;1.75;;;;;13.30;94449.00;;;;7398763;19;20569;-75
2023/07/14 02:15:34;;;;;;;5.65;1.58;;;;;13.30;94440.00;;;;7398515;19;20137;-76
2023/07/14 02:18:13;;;;;;;4.85;1.95;;;;;13.20;94434.00;;;;7398089;19;20177;-75
2023/07/14 02:20:42;;;;;;;3.88;1.80;;;;;13.10;94438.00;;;;7396391;19;20145;-74
2023/07/14 02:23:21;;;;;;;8.70;1.92;;;;;13.00;94445.00;;;;7397654;19;20473;-76
2023/07/14 02:26:11;;;;;;;4.13;1.70;;;;;13.10;94439.00;;;;7396543;19;20137;-75
2023/07/14 02:28:54;;;;;;;3.10;1.67;;;;;13.30;94447.00;;;;7398084;19;20612;-76
2023/07/14 02:31:44;;;;;;;3.75;1.70;;;;;13.30;94428.00;;;;7397542;19;20159;-74
2023/07/14 02:34:31;;;;;;;5.45;1.77;;;;;13.30;94427.00;;;;7394969;19;20224;-75
2023/07/14 02:37:04;;;;;;;2.88;1.80;;;;;13.60;94423.00;;;;7395919;19;20149;-74
2023/07/14 02:39:39;;;;;;;4.50;1.63;;;;;13.60;94418.00;;;;7396589;19;20133;-75
2023/07/14 02:42:13;;;;;;;5.15;1.45;;;;;13.80;94415.00;;;;7395397;19;20540;-75
2023/07/14 02:44:50;;;;;;;2.42;1.58;;;;;13.70;94425.00;;;;7396767;19;20133;-76
2023/07/14 02:47:23;;;;;;;5.32;1.60;;;;;13.70;94420.00;;;;7396298;19;20149;-76
2023/07/14 02:49:58;;;;;;;2.55;1.77;;;;;13.80;94424.00;;;;7398177;19;20178;-78
2023/07/14 02:52:32;;;;;;;3.05;1.45;;;;;13.70;94429.00;;;;7396125;19;20152;-80
2023/07/14 02:55:08;;;;;;;8.90;1.85;;;;;13.50;94418.00;;;;7394695;19;20152;-80
2023/07/14 02:57:42;;;;;;;10.10;2.20;;;;;13.40;94416.00;;;;7395989;19;20135;-79
2023/07/14 03:00:18;;;;;;;4.63;2.03;;;;;13.50;94412.00;;;;7396202;19;20615;-78
2023/07/14 03:02:45;;;;;;;3.90;1.65;;;;;13.30;94417.00;;;;7396384;19;20141;-78
2023/07/14 03:05:20;;;;;;;3.05;1.80;;;;;13.50;94415.00;;;;7395799;19;20497;-78
2023/07/14 03:07:48;;;;;;;6.55;1.70;;;;;13.30;94408.00;;;;7397358;19;20580;-79
2023/07/14 03:10:22;;;;;;;6.22;1.63;;;;;13.20;94408.00;;;;7395637;19;20560;-81
2023/07/14 03:12:52;;;;;;;4.88;1.70;;;;;13.10;94403.00;;;;7397262;19;20137;-78
2023/07/14 03:15:26;;;;;;;6.65;1.83;;;;;13.30;94397.00;;;;7397439;19;20179;-79
2023/07/14 03:18:00;;;;;;;2.83;1.65;;;;;13.50;94400.00;;;;7394925;19;20137;-80
2023/07/14 03:20:33;;;;;;;5.80;1.67;;;;;13.90;94400.00;;;;7395117;19;21415;-82
2023/07/14 03:23:01;;;;;;;4.93;1.55;;;;;14.10;94399.00;;;;7396014;19;20140;-78
2023/07/14 03:25:35;;;;;;;3.03;1.75;;;;;14.00;94387.00;;;;7395683;19;20140;-78
2023/07/14 03:28:09;;;;;;;6.05;1.73;;;;;13.70;94399.00;;;;7393237;19;20493;-79
2023/07/14 03:30:42;;;;;;;4.63;1.75;;;;;13.50;94384.00;;;;7392975;19;20170;-79
2023/07/14 03:33:18;;;;;;;2.40;1.52;;;;;13.40;94386.00;;;;7394600;19;20607;-80
2023/07/14 03:35:45;;;;;;;5.07;1.73;;;;;13.20;94383.00;;;;7394155;19;20196;-80
2023/07/14 03:38:21;;;;;;;4.55;1.88;;;;;13.20;94386.00;;;;7392626;19;20151;-78
2023/07/14 03:41:01;;;;;;;2.72;1.50;;;;;13.30;94384.00;;;;7393446;19;20160;-81
2023/07/14 03:43:43;;;;;;;4.68;1.90;;;;;13.20;94385.00;;;;7395288;19;20530;-76
2023/07/14 03:46:17;;;;;;;3.38;1.88;;;;;13.10;94386.00;;;;7393930;19;20668;-77
2023/07/14 03:48:52;;;;;;;3.55;1.92;;;;;13.20;94384.00;;;;7395511;19;20125;-76
2023/07/14 03:51:25;;;;;;;3.65;1.45;;;;;13.20;94386.00;;;;7393669;19;20629;-76
2023/07/14 03:54:01;;;;;;;3.88;2.22;;;;;13.30;94386.00;;;;7392891;19;20129;-76
2023/07/14 03:56:34;;;;;;;3.88;2.00;;;;;13.30;94388.00;;;;7391590;19;20227;-76
2023/07/14 03:59:09;;;;;;;2.67;1.60;;;;;13.40;94385.00;;;;7393851;19;20128;-77
2023/07/14 04:01:44;;;;;;;2.47;1.73;;;;;13.60;94385.00;;;;7393326;19;20149;-77
2023/07/14 04:04:13;;;;;;;3.38;1.70;;;;;13.80;94384.00;;;;7396232;19;20128;-77
2023/07/14 04:06:48;;;;;;;2.83;1.60;;;;;13.80;94385.00;;;;7394535;19;20158;-77
2023/07/14 04:09:17;;;;;;;3.67;1.35;;;;;13.90;94382.00;;;;7393881;19;20162;-76
2023/07/14 04:11:52;;;;;;;4.30;1.63;;;;;14.10;94387.00;;;;7392627;19;20159;-77
2023/07/14 04:14:27;;;;;;;7.88;1.73;;;;;14.10;94375.00;;;;7393365;19;20148;-77
2023/07/14 04:16:55;;;;;;;5.63;2.08;;;;;14.30;94368.00;;;;7392858;19;20643;-76
2023/07/14 04:19:29;;;;;;;1.92;1.55;;;;;14.30;94371.00;;;;7393683;19;20155;-78
2023/07/14 04:21:57;;;;;;;5.25;1.40;;;;;14.40;94355.00;;;;7391195;19;20129;-79
2023/07/14 04:24:25;;;;;;;3.92;1.52;;;;;14.50;94355.00;;;;7390734;19;20184;-77
2023/07/14 04:26:59;;;;;;;4.30;2.00;;;;;14.90;94361.00;;;;7394105;19;20152;-77
2023/07/14 04:29:29;;;;;;;3.65;1.50;;;;;15.10;94358.00;;;;7393891;19;20593;-77
2023/07/14 04:32:04;;;;;;;5.38;1.50;;;;;15.50;94353.00;;;;7391709;19;20132;-77
2023/07/14 04:34:33;;;;;;;7.90;1.75;;;;;15.50;94355.00;;;;7392873;19;20185;-76
2023/07/14 04:37:09;;;;;;;3.08;1.30;;;;;15.60;94350.00;;;;7393378;19;20454;-78
2023/07/14 04:39:45;;;;;;;5.25;1.40;;;;;15.60;94353.00;;;;7392240;19;20599;-78
2023/07/14 04:42:26;;;;;;;2.45;1.58;;;;;15.70;94357.00;;;;7377385;19;20260;-77
2023/07/14 04:44:54;;;;;;;3.20;1.70;;;;;15.80;94366.00;;;;7381788;19;20589;-77
2023/07/14 04:47:30;;;;;;;3.90;1.50;;;;;15.90;94355.00;;;;7380975;19;20555;-77
2023/07/14 04:49:58;;;;;;;4.28;1.60;;;;;15.90;94363.00;;;;7385109;19;20152;-76
2023/07/14 04:52:34;;;;;;;5.30;1.50;;;;;16.00;94363.00;;;;7389590;19;20482;-76
2023/07/14 04:55:06;;;;;;;2.55;1.50;;;;;16.00;94360.00;;;;7387645;19;20153;-78
2023/07/14 04:57:41;;;;;;;3.95;1.60;;;;;16.20;94359.00;;;;7387621;19;20588;-77
2023/07/14 05:00:18;;;;;;;8.43;1.70;;;;;16.30;94355.00;;;;7386174;19;20156;-77
2023/07/14 05:02:52;;;;;;;2.55;1.40;;;;;16.50;94356.00;;;;7388713;19;20621;-78
2023/07/14 05:05:23;;;;;;;3.33;1.60;;;;;16.90;94354.00;;;;7386977;19;20322;-76
2023/07/14 05:07:57;;;;;;;3.20;1.60;;;;;17.00;94346.00;;;;7387106;19;20140;-76
2023/07/14 05:10:26;;;;;;;3.35;1.70;;;;;17.20;94341.00;;;;7388286;19;20156;-74
2023/07/14 05:13:02;;;;;;;3.10;1.67;;;;;17.30;94346.00;;;;7390535;19;20128;-75
2023/07/14 05:15:31;;;;;;;6.28;1.73;;;;;17.40;94347.00;;;;7387023;19;20163;-75
2023/07/14 05:18:05;;;;;;;7.43;1.88;;;;;17.50;94344.00;;;;7387807;19;20708;-73
2023/07/14 05:20:41;;;;;;;7.47;1.42;;;;;17.50;94343.00;;;;7388426;19;20148;-76
2023/07/14 05:23:16;;;;;;;6.75;1.83;;;;;17.60;94347.00;;;;7388233;19;20641;-74
2023/07/14 05:25:47;;;;;;;4.28;1.70;;;;;17.60;94351.00;;;;7386982;19;20153;-74
2023/07/14 05:28:22;;;;;;;2.97;1.45;;;;;17.70;94346.00;;;;7387904;19;20162;-75
2023/07/14 05:30:51;;;;;;;3.42;1.58;;;;;17.80;94350.00;;;;7387099;19;20572;-75
2023/07/14 05:33:35;;;;;;;3.35;1.65;;;;;17.80;94350.00;;;;7390377;19;20220;-74
2023/07/14 05:36:06;;;;;;;5.70;1.80;;;;;17.90;94344.00;;;;7389087;19;20518;-74
2023/07/14 05:38:50;;;;;;;3.70;1.70;;;;;17.90;94349.00;;;;7390278;19;20497;-75
2023/07/14 05:41:32;;;;;;;5.25;1.75;;;;;17.80;94350.00;;;;7388185;19;20163;-74
2023/07/14 05:44:06;;;;;;;4.60;1.88;;;;;17.90;94352.00;;;;7387928;19;20492;-75
2023/07/14 05:46:41;;;;;;;1.88;1.35;;;;;17.80;94341.00;;;;7387807;19;20525;-74
2023/07/14 05:49:09;;;;;;;4.82;1.52;;;;;17.90;94338.00;;;;7387668;19;20141;-75
2023/07/14 05:51:36;;;;;;;7.47;2.00;;;;;18.00;94345.00;;;;7386227;19;20239;-74
2023/07/14 05:54:11;;;;;;;7.13;1.70;;;;;18.00;94343.00;;;;7385569;19;20634;-72
2023/07/14 05:56:46;;;;;;;3.83;1.55;;;;;18.10;94347.00;;;;7388986;19;20136;-75
2023/07/14 05:59:15;;;;;;;3.20;1.75;;;;;18.20;94340.00;;;;7388847;19;20140;-78
2023/07/14 06:01:50;;;;;;;4.53;1.83;;;;;18.60;94345.00;;;;7385026;19;20156;-73
2023/07/14 06:04:18;;;;;;;7.55;1.45;;;;;18.80;94331.00;;;;7387342;19;20148;-73
2023/07/14 06:07:00;;;;;;;4.20;1.45;;;;;19.00;94324.00;;;;7385377;19;21111;-72
2023/07/14 06:09:37;;;;;;;2.67;1.52;;;;;19.30;94328.00;;;;7385504;19;20264;-75
2023/07/14 06:12:27;;;;;;;3.67;1.60;;;;;19.60;94334.00;;;;7387418;19;20152;-77
2023/07/14 06:15:08;;;;;;;4.07;1.42;;;;;20.00;94331.00;;;;7386041;19;20129;-72
2023/07/14 06:17:37;;;;;;;3.28;1.60;;;;;20.30;94336.00;;;;7385401;19;20143;-72
2023/07/14 06:20:11;;;;;;;3.00;1.50;;;;;20.80;94326.00;;;;7386447;19;20155;-77
2023/07/14 06:22:40;;;;;;;5.05;2.30;;;;;20.70;94324.00;;;;7386742;19;20148;-79
2023/07/14 06:25:14;;;;;;;3.40;1.38;;;;;20.60;94316.00;;;;7385402;19;20143;-76
2023/07/14 06:27:48;;;;;;;4.15;1.48;;;;;20.40;94314.00;;;;7387243;19;20582;-80
2023/07/14 06:30:16;;;;;;;3.05;1.67;;;;;20.90;94313.00;;;;7388492;19;20476;-77
2023/07/14 06:32:52;;;;;;;6.32;1.90;;;;;21.10;94266.00;;;;7385974;19;20593;-77
2023/07/14 06:35:21;;;;;;;3.08;1.42;;;;;21.70;94306.00;;;;7382399;19;20639;-81
2023/07/14 06:37:58;;;;;;;11.25;1.83;;;;;21.40;94309.00;;;;7388415;19;20132;-78
2023/07/14 06:40:32;;;;;;;4.03;1.75;;;;;21.00;94313.00;;;;7385487;19;20124;-77
2023/07/14 06:43:16;;;;;;;4.15;1.67;;;;;20.90;94305.00;;;;7386556;19;20183;-78
2023/07/14 06:45:48;;;;;;;3.83;1.65;;;;;21.10;94304.00;;;;7388391;19;20181;-81
2023/07/14 06:48:22;;;;;;;6.45;1.90;;;;;21.20;94306.00;;;;7386853;19;20157;-79
2023/07/14 06:50:51;;;;;;;2.85;1.70;;;;;21.20;94305.00;;;;7387110;19;20213;-79
2023/07/14 06:53:25;;;;;;;4.57;1.80;;;;;21.30;94289.00;;;;7385861;19;20638;-79
2023/07/14 06:56:00;;;;;;;4.10;2.10;;;;;21.20;94298.00;;;;7388411;19;20141;-80
2023/07/14 06:58:35;;;;;;;3.83;1.77;;;;;21.10;94303.00;;;;7387833;19;21626;-81
2023/07/14 07:01:04;;;;;;;2.35;1.67;;;;;20.80;94303.00;;;;7385203;19;20148;-77
2023/07/14 07:03:42;;;;;;;2.97;1.85;;;;;20.80;94300.00;;;;7387022;19;20175;-78
2023/07/14 07:06:10;;;;;;;4.10;1.83;;;;;20.70;94301.00;;;;7382562;19;20153;-78
2023/07/14 07:08:49;;;;;;;3.05;1.70;;;;;20.90;94307.00;;;;7387238;19;20482;-79
2023/07/14 07:11:25;;;;;;;4.75;1.80;;;;;21.20;94310.00;;;;7388057;19;20128;-78
2023/07/14 07:14:02;;;;;;;3.45;1.63;;;;;21.20;94300.00;;;;7386437;19;20593;-78
2023/07/14 07:16:30;;;;;;;2.95;2.08;;;;;21.30;94300.00;;;;7387450;19;20133;-78
2023/07/14 07:19:06;;;;;;;2.33;1.48;;;;;21.30;94304.00;;;;7384110;19;20174;-79
2023/07/14 07:21:56;;;;;;;5.95;1.92;;;;;21.10;94307.00;;;;7385711;19;20173;-77
2023/07/14 07:24:24;;;;;;;6.30;1.90;;;;;21.40;94303.00;;;;7386078;19;20132;-75
2023/07/14 07:27:00;;;;;;;3.00;1.50;;;;;20.90;94318.00;;;;7386039;19;20154;-77
2023/07/14 07:29:30;;;;;;;2.00;1.65;;;;;20.90;94318.00;;;;7387430;19;20145;-78
2023/07/14 07:32:05;;;;;;;2.88;1.58;;;;;21.10;94320.00;;;;7385221;19;20148;-76
2023/07/14 07:34:40;;;;;;;5.47;1.88;;;;;21.40;94307.00;;;;7381569;19;20195;-78
2023/07/14 07:37:17;;;;;;;3.95;1.88;;;;;21.80;94303.00;;;;7385935;19;20128;-77
2023/07/14 07:39:56;;;;;;;5.20;1.85;;;;;21.80;94299.00;;;;7385508;19;20136;-79
2023/07/14 07:42:36;;;;;;;4.72;1.67;;;;;21.80;94290.00;;;;7384562;19;20616;-77
2023/07/14 07:45:06;;;;;;;6.97;1.98;;;;;22.20;94297.00;;;;7383502;19;20145;-76
2023/07/14 07:47:42;;;;;;;5.68;1.92;;;;;22.10;94297.00;;;;7384642;19;20125;-78
2023/07/14 07:50:10;;;;;;;2.58;1.50;;;;;21.90;94291.00;;;;7387844;19;20124;-78
2023/07/14 07:52:45;;;;;;;6.78;2.15;;;;;22.10;94289.00;;;;7385774;19;20162;-78
2023/07/14 07:55:13;;;;;;;2.88;1.55;;;;;22.30;94278.00;;;;7386666;19;20133;-79
2023/07/14 07:57:48;;;;;;;8.18;2.00;;;;;22.40;94270.00;;;;7384362;19;20515;-77
2023/07/14 08:00:22;;;;;;;6.97;1.77;;;;;22.50;94274.00;;;;7386141;19;20560;-81
2023/07/14 08:02:52;;;;;;;4.95;1.88;;;;;22.50;94273.00;;;;7382428;19;20635;-80
2023/07/14 08:05:29;;;;;;;7.10;1.98;;;;;22.50;94270.00;;;;7384782;19;20157;-78
2023/07/14 08:07:57;;;;;;;3.47;1.67;;;;;22.90;94279.00;;;;7385227;19;20133;-82
2023/07/14 08:10:31;;;;;;;2.30;1.50;;;;;22.70;94278.00;;;;7382583;19;20156;-81
2023/07/14 08:12:59;;;;;;;3.88;2.15;;;;;22.70;94266.00;;;;7382623;19;20204;-80
2023/07/14 08:15:37;;;;;;;9.43;2.10;;;;;22.70;94282.00;;;;7384099;19;20120;-80
2023/07/14 08:18:12;;;;;;;9.02;1.80;;;;;23.00;94264.00;;;;7387830;19;20133;-78
2023/07/14 08:20:49;;;;;;;4.95;1.73;;;;;23.60;94262.00;;;;7390480;19;20136;-80
2023/07/14 08:23:21;;;;;;;6.60;1.90;;;;;23.60;94261.00;;;;7391760;19;20604;-80
2023/07/14 08:26:03;;;;;;;5.03;1.88;;;;;23.80;94255.00;;;;7390801;19;20156;-80
2023/07/14 08:28:32;;;;;;;3.80;2.00;;;;;23.70;94259.00;;;;7388760;19;20589;-79
2023/07/14 08:31:12;;;;;;;6.05;2.00;;;;;23.70;94258.00;;;;7391550;19;20133;-79
2023/07/14 08:33:43;;;;;;;2.83;1.67;;;;;24.00;94253.00;;;;7389583;19;20166;-81
2023/07/14 08:36:19;;;;;;;5.13;1.77;;;;;24.10;94251.00;;;;7382736;19;20155;-80
2023/07/14 08:38:46;;;;;;;2.90;1.77;;;;;24.50;94241.00;;;;7390837;19;20129;-75
2023/07/14 08:41:26;;;;;;;4.38;1.90;;;;;24.80;94256.00;;;;7389979;19;20153;-76
2023/07/14 08:44:19;;;;;;;5.97;1.70;;;;;24.40;94264.00;;;;7387928;19;20152;-79
2023/07/14 08:47:12;;;;;;;6.35;1.90;;;;;24.30;94260.00;;;;7388304;19;20137;-77
2023/07/14 08:49:55;;;;;;;6.88;1.67;;;;;23.80;94267.00;;;;7388235;19;20149;-79
2023/07/14 08:52:37;;;;;;;3.95;2.00;;;;;24.00;94262.00;;;;7385754;19;20525;-75
2023/07/14 08:55:27;;;;;;;3.22;1.80;;;;;24.20;94267.00;;;;7389601;19;20152;-77
2023/07/14 08:58:18;;;;;;;8.82;1.92;;;;;24.00;94262.00;;;;7390767;19;20133;-77
2023/07/14 09:00:55;;;;;;;3.53;1.60;;;;;23.90;94267.00;;;;7389450;19;20128;-78
2023/07/14 09:03:39;;;;;;;5.28;1.95;;;;;24.00;94261.00;;;;7386854;19;20167;-79
2023/07/14 09:06:32;;;;;;;4.22;2.00;;;;;24.20;94255.00;;;;7389149;19;20153;-77
2023/07/14 09:09:18;;;;;;;2.45;1.58;;;;;24.10;94262.00;;;;7386716;19;20163;-79
2023/07/14 09:12:23;;;;;;;2.55;1.63;;;;;23.90;94272.00;;;;7388442;19;20531;-77
2023/07/14 09:14:59;;;;;;;3.95;1.98;;;;;24.30;94272.00;;;;7387042;19;20156;-77
2023/07/14 09:18:15;;;;;;;3.30;1.70;;;;;24.30;94267.00;;;;7390001;19;20140;-75
2023/07/14 09:21:02;;;;;;;2.22;1.40;;;;;24.00;94267.00;;;;7389925;19;20155;-78
2023/07/14 09:23:43;;;;;;;3.70;1.58;;;;;24.00;94269.00;;;;7390710;19;20132;-78
2023/07/14 09:26:48;;;;;;;4.18;1.50;;;;;24.10;94266.00;;;;7388729;19;20141;-78
2023/07/14 09:29:36;;;;;;;2.40;1.60;;;;;24.30;94270.00;;;;7385214;19;20569;-76
2023/07/14 09:32:35;;;;;;;3.78;1.70;;;;;24.20;94262.00;;;;7388933;19;20153;-78
2023/07/14 09:35:18;;;;;;;3.40;1.77;;;;;23.90;94259.00;;;;7389527;19;20589;-77
2023/07/14 09:38:03;;;;;;;3.80;1.75;;;;;23.60;94263.00;;;;7386178;19;20139;-76
2023/07/14 09:40:41;;;;;;;4.13;1.77;;;;;23.50;94264.00;;;;7389327;19;20481;-78
2023/07/14 09:43:21;;;;;;;5.22;2.00;;;;;23.40;94262.00;;;;7386062;19;20152;-77
2023/07/14 09:46:03;;;;;;;3.33;1.80;;;;;23.50;94257.00;;;;7386825;19;20133;-77
2023/07/14 09:49:00;;;;;;;2.65;1.70;;;;;23.50;94259.00;;;;7389049;19;20166;-79
2023/07/14 09:51:28;;;;;;;5.28;1.80;;;;;23.60;94253.00;;;;7387842;19;20148;-79
2023/07/14 09:54:09;;;;;;;2.17;1.60;;;;;23.80;94251.00;;;;7388077;19;20134;-78
2023/07/14 09:56:45;;;;;;;5.03;1.83;;;;;23.50;94249.00;;;;7387666;19;20900;-80
2023/07/14 09:59:22;;;;;;;2.63;1.70;;;;;23.70;94242.00;;;;7388694;19;20192;-79
2023/07/14 10:02:01;;;;;;;2.65;1.52;;;;;23.60;94245.00;;;;7386654;19;20192;-78
2023/07/14 10:04:31;;;;;;;2.35;1.58;;;;;23.90;94230.00;;;;7387491;19;20145;-79
2023/07/14 10:07:25;;;;;;;1.98;1.50;;;;;23.70;94234.00;;;;7385922;19;20152;-80
2023/07/14 10:09:57;;;;;;;4.22;1.70;;;;;24.00;94244.00;;;;7387260;19;20148;-79
2023/07/14 10:12:36;;;;;;;3.28;1.67;;;;;24.30;94245.00;;;;7386170;19;20148;-80
2023/07/14 10:15:30;;;;;;;2.08;1.52;;;;;24.50;94237.00;;;;7386616;19;20136;-80
2023/07/14 10:18:13;;;;;;;2.75;1.60;;;;;24.70;94233.00;;;;7387057;19;20603;-79
2023/07/14 10:20:53;;;;;;;4.15;1.80;;;;;25.20;94229.00;;;;7385841;19;20156;-81
2023/07/14 10:23:29;;;;;;;3.60;1.70;;;;;26.00;94233.00;;;;7387757;19;20193;-79
2023/07/14 10:26:07;;;;;;;3.10;1.50;;;;;25.80;94238.00;;;;7388048;19;20133;-82
2023/07/14 10:28:47;;;;;;;5.47;1.85;;;;;25.50;94237.00;;;;7386350;19;20641;-83
2023/07/14 10:31:27;;;;;;;4.05;1.85;;;;;25.40;94230.00;;;;7386329;19;20735;-80
2023/07/14 10:34:20;;;;;;;3.00;1.80;;;;;25.20;94223.00;;;;7384639;19;20141;-79
2023/07/14 10:36:51;;;;;;;6.00;2.00;;;;;25.20;94234.00;;;;7382467;19;20611;-79
2023/07/14 10:39:43;;;;;;;3.97;1.90;;;;;25.30;94219.00;;;;7383501;19;20128;-81
2023/07/14 10:42:21;;;;;;;3.55;1.80;;;;;25.20;94216.00;;;;7385954;19;20209;-82
2023/07/14 10:44:57;;;;;;;2.58;1.75;;;;;25.40;94211.00;;;;7386303;19;20627;-80
2023/07/14 10:47:35;;;;;;;3.17;1.70;;;;;25.80;94203.00;;;;7388242;19;20137;-79
2023/07/14 10:50:18;;;;;;;6.50;1.70;;;;;26.70;94196.00;;;;7385165;19;20495;-80
2023/07/14 10:52:53;;;;;;;1.80;1.52;;;;;26.70;94198.00;;;;7385375;19;20152;-82
2023/07/14 10:55:31;;;;;;;2.03;1.50;;;;;26.70;94203.00;;;;7385293;19;20144;-78
2023/07/14 10:58:15;;;;;;;5.82;1.60;;;;;26.80;94207.00;;;;7385261;19;20129;-76
2023/07/14 11:00:59;;;;;;;7.82;2.00;;;;;26.40;94197.00;;;;7384794;19;20167;-78
2023/07/14 11:03:34;;;;;;;2.70;1.88;;;;;26.30;94204.00;;;;7387532;19;20160;-77
2023/07/14 11:06:20;;;;;;;2.70;1.70;;;;;26.40;94206.00;;;;7385950;19;20143;-77
2023/07/14 11:08:56;;;;;;;3.45;1.67;;;;;26.60;94199.00;;;;7385366;19;20148;-78
2023/07/14 11:11:41;;;;;;;3.33;1.98;;;;;26.90;94153.00;;;;7382158;19;20753;-77
2023/07/14 11:14:45;;;;;;;5.65;1.80;;;;;26.90;94194.00;;;;7383219;19;20208;-78
2023/07/14 11:17:51;;;;;;;2.85;1.80;;;;;27.00;94200.00;;;;7385008;19;20129;-79
2023/07/14 11:20:43;;;;;;;4.55;1.85;;;;;27.20;94183.00;;;;7384508;19;20153;-78
2023/07/14 11:23:31;;;;;;;3.50;1.73;;;;;27.70;94188.00;;;;7383856;19;20173;-78
2023/07/14 11:26:33;;;;;;;3.13;1.90;;;;;27.20;94198.00;;;;7383144;19;20220;-78
2023/07/14 11:29:15;;;;;;;2.28;1.67;;;;;26.80;94196.00;;;;7383478;19;20148;-77
2023/07/14 11:31:54;;;;;;;6.28;1.88;;;;;26.80;94192.00;;;;7384786;19;21469;-79
2023/07/14 11:34:35;;;;;;;4.68;1.75;;;;;26.80;94190.00;;;;7385884;19;20171;-78
2023/07/14 11:37:45;;;;;;;1.90;1.60;;;;;27.20;94159.00;;;;7383963;19;20211;-78
2023/07/14 11:40:23;;;;;;;4.72;1.75;;;;;27.60;94143.00;;;;7384625;19;20148;-77
2023/07/14 11:43:22;;;;;;;3.83;1.80;;;;;29.60;94147.00;;;;7382235;19;20208;-78
2023/07/14 11:46:13;;;;;;;5.20;1.85;;;;;30.00;94139.00;;;;7382463;19;20162;-77
2023/07/14 11:48:58;;;;;;;4.00;1.90;;;;;29.00;94138.00;;;;7383114;19;20132;-77
2023/07/14 11:51:50;;;;;;;3.60;1.90;;;;;28.70;94171.00;;;;7382325;19;20144;-77
2023/07/14 11:54:57;;;;;;;5.82;2.00;;;;;28.60;94153.00;;;;7384940;19;20627;-79
2023/07/14 11:57:48;;;;;;;2.17;1.77;;;;;28.30;94141.00;;;;7381269;19;20139;-78
2023/07/14 12:00:25;;;;;;;5.68;2.05;;;;;28.60;94155.00;;;;7389435;19;20135;-78
2023/07/14 12:03:03;;;;;;;3.95;2.00;;;;;29.10;94124.00;;;;7389799;19;20713;-78
2023/07/14 12:06:19;;;;;;;3.25;1.65;;;;;29.60;94149.00;;;;7390205;19;20155;-78
2023/07/14 12:09:06;;;;;;;3.22;1.77;;;;;29.90;94146.00;;;;7385712;19;20158;-80
2023/07/14 12:11:46;;;;;;;3.97;1.77;;;;;29.30;94124.00;;;;7388342;19;20176;-78
2023/07/14 12:14:29;;;;;;;2.65;1.75;;;;;28.90;94123.00;;;;7388827;19;20629;-78
2023/07/14 12:17:38;;;;;;;2.97;1.67;;;;;29.70;94124.00;;;;7387779;19;20263;-78
2023/07/14 12:20:13;;;;;;;2.72;1.80;;;;;29.60;94150.00;;;;7393954;19;20159;-77
2023/07/14 12:22:43;;;;;;;4.53;1.70;;;;;28.50;94125.00;;;;7388506;19;20152;-80
2023/07/14 12:25:28;;;;;;;6.28;1.80;;;;;29.30;94126.00;;;;7388816;19;20129;-78
2023/07/14 12:28:00;;;;;;;2.63;1.90;;;;;29.70;94123.00;;;;7390013;19;20165;-76
2023/07/14 12:30:34;;;;;;;3.28;1.70;;;;;29.30;94122.00;;;;7388874;19;20159;-77
2023/07/14 12:33:12;;;;;;;2.20;1.60;;;;;28.90;94116.00;;;;7390514;19;20154;-79
2023/07/14 12:35:47;;;;;;;2.70;1.70;;;;;29.30;94112.00;;;;7386562;19;20243;-81
2023/07/14 12:38:23;;;;;;;3.38;1.98;;;;;30.00;94102.00;;;;7389962;19;20143;-79
2023/07/14 12:40:58;;;;;;;3.05;1.90;;;;;31.10;94106.00;;;;7388223;19;20148;-79
2023/07/14 12:43:49;;;;;;;3.47;1.83;;;;;31.70;94107.00;;;;7389969;19;20143;-81
2023/07/14 12:46:27;;;;;;;3.75;1.67;;;;;30.70;94090.00;;;;7386664;19;20128;-80
2023/07/14 12:49:17;;;;;;;2.05;1.70;;;;;30.70;94090.00;;;;7389151;19;21472;-79
2023/07/14 12:51:46;;;;;;;2.63;2.00;;;;;30.70;94089.00;;;;7389798;19;20198;-80
2023/07/14 12:54:27;;;;;;;4.45;2.00;;;;;30.60;94089.00;;;;7388232;19;20218;-80
2023/07/14 12:57:03;;;;;;;3.88;1.88;;;;;30.80;94087.00;;;;7386257;19;20132;-81
2023/07/14 12:59:38;;;;;;;3.72;1.67;;;;;30.30;94084.00;;;;7389000;19;21008;-80
2023/07/14 13:02:12;;;;;;;3.80;1.95;;;;;30.50;94104.00;;;;7388066;19;20584;-78
2023/07/14 13:04:47;;;;;;;4.30;1.60;;;;;30.20;94087.00;;;;7387244;19;20445;-78
2023/07/14 13:07:30;;;;;;;3.13;1.70;;;;;31.10;94075.00;;;;7386586;19;20151;-80
2023/07/14 13:10:19;;;;;;;2.38;1.80;;;;;30.50;94060.00;;;;7389099;19;20148;-77
2023/07/14 13:12:56;;;;;;;3.38;1.70;;;;;31.00;94054.00;;;;7389067;19;20144;-78